createdAt,value
2023-05-01T00:00:59.906Z,92608.00
2023-05-01T00:01:59.924Z,92606.00
2023-05-01T00:03:00.127Z,92606.00
2023-05-01T00:04:00.132Z,92602.00
2023-05-01T00:05:00.142Z,92606.00
2023-05-01T00:06:00.107Z,92604.00
2023-05-01T00:07:00.107Z,92602.00
2023-05-01T00:08:00.919Z,92604.00
2023-05-01T00:09:00.188Z,92602.00
2023-05-01T00:10:00.216Z,92602.00
2023-05-01T00:11:00.221Z,92602.00
2023-05-01T00:12:00.255Z,92600.00
2023-05-01T00:13:00.285Z,92602.00
2023-05-01T00:14:00.316Z,92600.00
2023-05-01T00:15:00.424Z,92598.00
2023-05-01T00:16:00.405Z,92600.00
2023-05-01T00:17:00.427Z,92594.00
2023-05-01T00:18:00.512Z,92596.00
2023-05-01T00:19:00.503Z,92594.00
2023-05-01T00:20:00.557Z,92596.00
2023-05-01T00:21:00.568Z,92596.00
2023-05-01T00:22:00.635Z,92596.00
2023-05-01T00:23:00.636Z,92598.00
2023-05-01T00:24:00.675Z,92598.00
2023-05-01T00:25:00.716Z,92598.00
2023-05-01T00:26:00.749Z,92598.00
2023-05-01T00:27:00.786Z,92600.00
2023-05-01T00:28:00.814Z,92598.00
2023-05-01T00:29:00.839Z,92600.00
2023-05-01T00:30:01.132Z,92596.00
2023-05-01T00:31:00.897Z,92600.00
2023-05-01T00:32:00.962Z,92598.00
2023-05-01T00:33:01.040Z,92596.00
2023-05-01T00:34:01.018Z,92598.00
2023-05-01T00:35:01.057Z,92596.00
2023-05-01T00:36:01.106Z,92596.00
2023-05-01T00:37:01.118Z,92594.00
2023-05-01T00:38:01.154Z,92596.00
2023-05-01T00:39:01.197Z,92592.00
2023-05-01T00:40:01.221Z,92592.00
2023-05-01T00:41:01.260Z,92592.00
2023-05-01T00:42:01.310Z,92589.00
2023-05-01T00:43:01.319Z,92591.00
2023-05-01T00:44:01.358Z,92591.00
2023-05-01T00:45:01.393Z,92591.00
2023-05-01T00:46:01.453Z,92589.00
2023-05-01T00:47:01.462Z,92589.00
2023-05-01T00:48:01.519Z,92589.00
2023-05-01T00:49:01.534Z,92585.00
2023-05-01T00:50:01.611Z,92587.00
2023-05-01T00:51:01.590Z,92585.00
2023-05-01T00:52:01.639Z,92585.00
2023-05-01T00:53:01.656Z,92577.00
2023-05-01T00:54:01.704Z,92585.00
2023-05-01T00:55:01.774Z,92577.00
2023-05-01T00:56:01.820Z,92573.00
2023-05-01T00:57:01.833Z,92571.00
2023-05-01T00:58:01.947Z,92569.00
2023-05-01T00:59:01.889Z,92569.00
2023-05-01T01:00:01.938Z,92569.00
2023-05-01T01:01:02.008Z,92569.00
2023-05-01T01:02:02.018Z,92567.00
2023-05-01T01:03:02.090Z,92567.00
2023-05-01T01:04:02.200Z,92567.00
2023-05-01T01:05:02.199Z,92565.00
2023-05-01T01:06:02.220Z,92567.00
2023-05-01T01:07:02.248Z,92565.00
2023-05-01T01:08:02.259Z,92565.00
2023-05-01T01:09:02.295Z,92565.00
2023-05-01T01:10:02.343Z,92561.00
2023-05-01T01:11:02.380Z,92563.00
2023-05-01T01:12:03.018Z,92561.00
2023-05-01T01:13:02.469Z,92563.00
2023-05-01T01:14:02.517Z,92561.00
2023-05-01T01:15:02.558Z,92559.00
2023-05-01T01:16:02.614Z,92559.00
2023-05-01T01:17:02.666Z,92559.00
2023-05-01T01:18:02.715Z,92557.00
2023-05-01T01:19:02.698Z,92557.00
2023-05-01T01:20:02.752Z,92557.00
2023-05-01T01:21:02.775Z,92555.00
2023-05-01T01:22:02.806Z,92555.00
2023-05-01T01:23:02.854Z,92554.00
2023-05-01T01:24:02.895Z,92555.00
2023-05-01T01:25:02.931Z,92554.00
2023-05-01T01:26:02.973Z,92557.00
2023-05-01T01:27:03.013Z,92554.00
2023-05-01T01:28:03.049Z,92555.00
2023-05-01T01:29:03.080Z,92554.00
2023-05-01T01:30:03.122Z,92554.00
2023-05-01T01:31:03.220Z,92552.00
2023-05-01T01:32:03.465Z,92552.00
2023-05-01T01:33:03.274Z,92552.00
2023-05-01T01:34:03.254Z,92552.00
2023-05-01T01:35:03.298Z,92550.00
2023-05-01T01:36:03.334Z,92550.00
2023-05-01T01:37:03.387Z,92550.00
2023-05-01T01:38:03.436Z,92550.00
2023-05-01T01:39:03.456Z,92548.00
2023-05-01T01:40:03.483Z,92548.00
2023-05-01T01:41:03.523Z,92548.00
2023-05-01T01:42:03.956Z,92550.00
2023-05-01T01:43:03.589Z,92548.00
2023-05-01T01:44:03.627Z,92546.00
2023-05-01T01:45:03.672Z,92548.00
2023-05-01T01:46:03.794Z,92544.00
2023-05-01T01:47:03.728Z,92544.00
2023-05-01T01:48:03.806Z,92542.00
2023-05-01T01:49:03.804Z,92540.00
2023-05-01T01:50:03.880Z,92538.00
2023-05-01T01:51:03.876Z,92540.00
2023-05-01T01:52:03.910Z,92536.00
2023-05-01T01:53:04.006Z,92538.00
2023-05-01T01:54:03.967Z,92540.00
2023-05-01T01:55:04.016Z,92536.00
2023-05-01T01:56:04.105Z,92536.00
2023-05-01T01:57:04.066Z,92534.00
2023-05-01T01:58:04.109Z,92536.00
2023-05-01T01:59:04.138Z,92534.00
2023-05-01T02:00:04.179Z,92534.00
2023-05-01T02:01:04.217Z,92532.00
2023-05-01T02:02:04.452Z,92528.00
2023-05-01T02:03:04.328Z,92530.00
2023-05-01T02:04:04.383Z,92526.00
2023-05-01T02:05:04.340Z,92528.00
2023-05-01T02:06:04.590Z,92526.00
2023-05-01T02:07:04.403Z,92522.00
2023-05-01T02:08:04.453Z,92522.00
2023-05-01T02:09:04.464Z,92522.00
2023-05-01T02:10:04.498Z,92524.00
2023-05-01T02:11:04.545Z,92522.00
2023-05-01T02:12:04.574Z,92522.00
2023-05-01T02:13:04.616Z,92522.00
2023-05-01T02:14:04.639Z,92522.00
2023-05-01T02:15:04.685Z,92524.00
2023-05-01T02:16:04.748Z,92524.00
2023-05-01T02:17:04.767Z,92524.00
2023-05-01T02:18:04.815Z,92522.00
2023-05-01T02:19:04.821Z,92520.00
2023-05-01T02:20:04.881Z,92520.00
2023-05-01T02:21:04.991Z,92522.00
2023-05-01T02:22:04.945Z,92520.00
2023-05-01T02:23:05.067Z,92520.00
2023-05-01T02:24:05.004Z,92520.00
2023-05-01T02:25:05.043Z,92518.00
2023-05-01T02:26:05.099Z,92520.00
2023-05-01T02:27:05.125Z,92520.00
2023-05-01T02:28:05.147Z,92520.00
2023-05-01T02:29:05.177Z,92518.00
2023-05-01T02:30:05.282Z,92516.00
2023-05-01T02:31:05.289Z,92518.00
2023-05-01T02:32:05.353Z,92514.00
2023-05-01T02:33:05.459Z,92516.00
2023-05-01T02:34:05.452Z,92516.00
2023-05-01T02:35:05.397Z,92516.00
2023-05-01T02:36:05.445Z,92516.00
2023-05-01T02:37:05.537Z,92512.00
2023-05-01T02:38:05.508Z,92514.00
2023-05-01T02:39:05.547Z,92512.00
2023-05-01T02:40:05.578Z,92512.00
2023-05-01T02:41:05.637Z,92510.00
2023-05-01T02:42:05.669Z,92512.00
2023-05-01T02:43:05.699Z,92510.00
2023-05-01T02:44:05.720Z,92508.00
2023-05-01T02:45:05.784Z,92508.00
2023-05-01T02:46:05.871Z,92508.00
2023-05-01T02:47:05.864Z,92508.00
2023-05-01T02:48:05.923Z,92508.00
2023-05-01T02:49:05.935Z,92508.00
2023-05-01T02:50:05.949Z,92508.00
2023-05-01T02:51:06.054Z,92508.00
2023-05-01T02:52:06.022Z,92506.00
2023-05-01T02:53:06.046Z,92506.00
2023-05-01T02:54:06.089Z,92504.00
2023-05-01T02:55:06.123Z,92504.00
2023-05-01T02:56:06.150Z,92504.00
2023-05-01T02:57:07.025Z,92502.00
2023-05-01T02:58:06.235Z,92502.00
2023-05-01T02:59:06.261Z,92502.00
2023-05-01T03:00:06.297Z,92502.00
2023-05-01T03:01:06.396Z,92504.00
2023-05-01T03:02:06.381Z,92500.00
2023-05-01T03:03:06.553Z,92504.00
2023-05-01T03:04:06.487Z,92500.00
2023-05-01T03:05:06.486Z,92499.00
2023-05-01T03:06:06.546Z,92499.00
2023-05-01T03:07:06.579Z,92499.00
2023-05-01T03:08:06.599Z,92497.00
2023-05-01T03:09:06.638Z,92495.00
2023-05-01T03:10:06.667Z,92497.00
2023-05-01T03:11:06.722Z,92495.00
2023-05-01T03:12:06.759Z,92495.00
2023-05-01T03:13:06.777Z,92499.00
2023-05-01T03:14:06.825Z,92495.00
2023-05-01T03:15:06.917Z,92495.00
2023-05-01T03:16:06.938Z,92497.00
2023-05-01T03:17:06.925Z,92497.00
2023-05-01T03:18:07.098Z,92493.00
2023-05-01T03:19:06.992Z,92495.00
2023-05-01T03:20:07.043Z,92495.00
2023-05-01T03:21:07.100Z,92497.00
2023-05-01T03:22:07.304Z,92495.00
2023-05-01T03:23:07.157Z,92493.00
2023-05-01T03:24:07.189Z,92491.00
2023-05-01T03:25:07.228Z,92495.00
2023-05-01T03:26:07.256Z,92491.00
2023-05-01T03:27:07.297Z,92489.00
2023-05-01T03:28:07.405Z,92489.00
2023-05-01T03:29:07.370Z,92489.00
2023-05-01T03:30:07.435Z,92489.00
2023-05-01T03:31:07.444Z,92487.00
2023-05-01T03:32:07.499Z,92487.00
2023-05-01T03:33:07.554Z,92487.00
2023-05-01T03:34:07.567Z,92485.00
2023-05-01T03:35:07.639Z,92485.00
2023-05-01T03:36:07.641Z,92487.00
2023-05-01T03:37:07.689Z,92485.00
2023-05-01T03:38:07.781Z,92487.00
2023-05-01T03:39:07.735Z,92485.00
2023-05-01T03:40:07.775Z,92485.00
2023-05-01T03:41:07.905Z,92485.00
2023-05-01T03:42:07.870Z,92487.00
2023-05-01T03:43:07.905Z,92487.00
2023-05-01T03:44:08.495Z,92487.00
2023-05-01T03:45:07.991Z,92487.00
2023-05-01T03:46:08.080Z,92487.00
2023-05-01T03:47:08.999Z,92485.00
2023-05-01T03:48:08.130Z,92485.00
2023-05-01T03:49:08.143Z,92485.00
2023-05-01T03:50:08.175Z,92483.00
2023-05-01T03:51:08.515Z,92483.00
2023-05-01T03:52:08.263Z,92485.00
2023-05-01T03:53:08.292Z,92485.00
2023-05-01T03:54:08.328Z,92487.00
2023-05-01T03:55:08.357Z,92483.00
2023-05-01T03:56:08.412Z,92485.00
2023-05-01T03:57:08.457Z,92485.00
2023-05-01T03:58:08.477Z,92487.00
2023-05-01T03:59:08.502Z,92485.00
2023-05-01T04:00:08.541Z,92485.00
2023-05-01T04:01:08.647Z,92485.00
2023-05-01T04:02:08.640Z,92485.00
2023-05-01T04:03:08.717Z,92485.00
2023-05-01T04:04:08.893Z,92483.00
2023-05-01T04:05:08.720Z,92485.00
2023-05-01T04:06:08.845Z,92481.00
2023-05-01T04:07:08.797Z,92481.00
2023-05-01T04:08:08.832Z,92481.00
2023-05-01T04:09:08.879Z,92481.00
2023-05-01T04:10:08.914Z,92481.00
2023-05-01T04:11:08.979Z,92483.00
2023-05-01T04:12:08.995Z,92483.00
2023-05-01T04:13:09.032Z,92481.00
2023-05-01T04:14:09.158Z,92485.00
2023-05-01T04:15:09.127Z,92483.00
2023-05-01T04:16:09.171Z,92485.00
2023-05-01T04:17:09.196Z,92485.00
2023-05-01T04:18:09.287Z,92485.00
2023-05-01T04:19:09.277Z,92485.00
2023-05-01T04:20:09.306Z,92485.00
2023-05-01T04:21:09.369Z,92481.00
2023-05-01T04:22:09.374Z,92483.00
2023-05-01T04:23:09.415Z,92483.00
2023-05-01T04:24:09.460Z,92485.00
2023-05-01T04:25:09.495Z,92481.00
2023-05-01T04:26:09.539Z,92485.00
2023-05-01T04:27:09.567Z,92483.00
2023-05-01T04:28:09.600Z,92483.00
2023-05-01T04:29:09.624Z,92485.00
2023-05-01T04:30:09.666Z,92485.00
2023-05-01T04:31:09.702Z,92485.00
2023-05-01T04:32:09.736Z,92485.00
2023-05-01T04:33:09.794Z,92487.00
2023-05-01T04:34:09.814Z,92487.00
2023-05-01T04:35:09.850Z,92485.00
2023-05-01T04:36:09.888Z,92487.00
2023-05-01T04:37:09.926Z,92485.00
2023-05-01T04:38:10.017Z,92487.00
2023-05-01T04:39:09.985Z,92487.00
2023-05-01T04:40:11.663Z,92489.00
2023-05-01T04:41:10.069Z,92489.00
2023-05-01T04:42:10.113Z,92487.00
2023-05-01T04:43:10.156Z,92489.00
2023-05-01T04:44:10.197Z,92491.00
2023-05-01T04:45:10.222Z,92491.00
2023-05-01T04:46:10.282Z,92493.00
2023-05-01T04:47:10.319Z,92493.00
2023-05-01T04:48:10.412Z,92495.00
2023-05-01T04:49:10.386Z,92497.00
2023-05-01T04:50:10.425Z,92495.00
2023-05-01T04:51:10.465Z,92495.00
2023-05-01T04:52:10.506Z,92495.00
2023-05-01T04:53:10.529Z,92497.00
2023-05-01T04:54:10.561Z,92499.00
2023-05-01T04:55:10.602Z,92499.00
2023-05-01T04:56:10.655Z,92499.00
2023-05-01T04:57:10.726Z,92499.00
2023-05-01T04:58:10.735Z,92500.00
2023-05-01T04:59:10.763Z,92499.00
2023-05-01T05:00:10.804Z,92500.00
2023-05-01T05:01:10.854Z,92499.00
2023-05-01T05:02:10.874Z,92499.00
2023-05-01T05:03:11.039Z,92500.00
2023-05-01T05:04:11.005Z,92500.00
2023-05-01T05:05:11.533Z,92502.00
2023-05-01T05:06:11.089Z,92502.00
2023-05-01T05:07:11.103Z,92502.00
2023-05-01T05:08:11.157Z,92502.00
2023-05-01T05:09:11.192Z,92502.00
2023-05-01T05:10:11.234Z,92502.00
2023-05-01T05:11:11.262Z,92502.00
2023-05-01T05:12:11.311Z,92499.00
2023-05-01T05:13:11.350Z,92502.00
2023-05-01T05:14:11.397Z,92502.00
2023-05-01T05:15:11.427Z,92504.00
2023-05-01T05:16:11.499Z,92506.00
2023-05-01T05:17:11.515Z,92506.00
2023-05-01T05:18:11.605Z,92508.00
2023-05-01T05:19:11.664Z,92502.00
2023-05-01T05:20:11.625Z,92500.00
2023-05-01T05:21:11.670Z,92504.00
2023-05-01T05:22:11.695Z,92500.00
2023-05-01T05:23:11.724Z,92500.00
2023-05-01T05:24:11.775Z,92504.00
2023-05-01T05:25:11.806Z,92502.00
2023-05-01T05:26:11.868Z,92502.00
2023-05-01T05:27:12.039Z,92499.00
2023-05-01T05:28:11.930Z,92504.00
2023-05-01T05:29:11.967Z,92502.00
2023-05-01T05:30:12.004Z,92502.00
2023-05-01T05:31:12.061Z,92502.00
2023-05-01T05:32:12.177Z,92504.00
2023-05-01T05:33:12.188Z,92504.00
2023-05-01T05:34:12.190Z,92504.00
2023-05-01T05:35:12.236Z,92502.00
2023-05-01T05:36:12.296Z,92504.00
2023-05-01T05:37:12.315Z,92504.00
2023-05-01T05:38:12.359Z,92504.00
2023-05-01T05:39:12.405Z,92504.00
2023-05-01T05:40:12.446Z,92506.00
2023-05-01T05:41:12.486Z,92506.00
2023-05-01T05:42:12.534Z,92506.00
2023-05-01T05:43:12.576Z,92506.00
2023-05-01T05:44:12.619Z,92506.00
2023-05-01T05:45:12.676Z,92506.00
2023-05-01T05:46:12.719Z,92506.00
2023-05-01T05:47:12.754Z,92504.00
2023-05-01T05:48:12.880Z,92502.00
2023-05-01T05:49:12.842Z,92502.00
2023-05-01T05:50:12.893Z,92502.00
2023-05-01T05:51:12.996Z,92500.00
2023-05-01T05:52:12.966Z,92502.00
2023-05-01T05:53:13.013Z,92500.00
2023-05-01T05:54:13.048Z,92502.00
2023-05-01T05:55:13.090Z,92502.00
2023-05-01T05:56:13.136Z,92500.00
2023-05-01T05:57:13.211Z,92500.00
2023-05-01T05:58:13.213Z,92499.00
2023-05-01T05:59:14.099Z,92500.00
2023-05-01T06:00:13.283Z,92499.00
2023-05-01T06:01:13.325Z,92497.00
2023-05-01T06:02:13.427Z,92495.00
2023-05-01T06:03:13.590Z,92495.00
2023-05-01T06:04:13.434Z,92495.00
2023-05-01T06:05:13.509Z,92499.00
2023-05-01T06:06:13.538Z,92497.00
2023-05-01T06:07:13.581Z,92495.00
2023-05-01T06:08:13.588Z,92497.00
2023-05-01T06:09:14.065Z,92497.00
2023-05-01T06:10:13.662Z,92495.00
2023-05-01T06:11:13.705Z,92493.00
2023-05-01T06:12:14.066Z,92495.00
2023-05-01T06:13:14.740Z,92495.00
2023-05-01T06:14:13.813Z,92493.00
2023-05-01T06:15:13.843Z,92495.00
2023-05-01T06:16:13.984Z,92491.00
2023-05-01T06:17:13.937Z,92493.00
2023-05-01T06:18:14.006Z,92493.00
2023-05-01T06:19:14.554Z,92491.00
2023-05-01T06:20:14.088Z,92491.00
2023-05-01T06:21:14.074Z,92491.00
2023-05-01T06:22:14.097Z,92491.00
2023-05-01T06:23:14.177Z,92491.00
2023-05-01T06:24:14.170Z,92489.00
2023-05-01T06:25:14.209Z,92489.00
2023-05-01T06:26:14.246Z,92491.00
2023-05-01T06:27:14.286Z,92489.00
2023-05-01T06:28:14.319Z,92489.00
2023-05-01T06:29:14.340Z,92489.00
2023-05-01T06:30:14.385Z,92485.00
2023-05-01T06:31:14.446Z,92487.00
2023-05-01T06:32:14.445Z,92487.00
2023-05-01T06:33:15.107Z,92485.00
2023-05-01T06:34:14.586Z,92485.00
2023-05-01T06:35:14.561Z,92485.00
2023-05-01T06:36:14.612Z,92483.00
2023-05-01T06:37:14.624Z,92483.00
2023-05-01T06:38:14.673Z,92485.00
2023-05-01T06:39:14.695Z,92487.00
2023-05-01T06:40:14.727Z,92485.00
2023-05-01T06:41:14.759Z,92485.00
2023-05-01T06:42:14.796Z,92485.00
2023-05-01T06:43:14.827Z,92487.00
2023-05-01T06:44:14.864Z,92485.00
2023-05-01T06:45:14.899Z,92485.00
2023-05-01T06:46:14.973Z,92485.00
2023-05-01T06:47:15.052Z,92485.00
2023-05-01T06:48:15.098Z,92485.00
2023-05-01T06:49:15.049Z,92483.00
2023-05-01T06:50:15.057Z,92485.00
2023-05-01T06:51:15.094Z,92485.00
2023-05-01T06:52:15.133Z,92483.00
2023-05-01T06:53:15.193Z,92485.00
2023-05-01T06:54:15.197Z,92483.00
2023-05-01T06:55:16.063Z,92485.00
2023-05-01T06:56:16.077Z,92483.00
2023-05-01T06:57:15.310Z,92485.00
2023-05-01T06:58:23.534Z,92483.00
2023-05-01T06:59:16.282Z,92483.00
2023-05-01T07:00:15.259Z,92483.00
2023-05-01T07:01:15.303Z,92483.00
2023-05-01T07:02:15.369Z,92483.00
2023-05-01T07:03:15.274Z,92483.00
2023-05-01T07:04:15.154Z,92485.00
2023-05-01T07:05:15.203Z,92485.00
2023-05-01T07:06:15.211Z,92485.00
2023-05-01T07:07:15.104Z,92487.00
2023-05-01T07:08:15.099Z,92485.00
2023-05-01T07:09:15.128Z,92483.00
2023-05-01T07:10:15.154Z,92483.00
2023-05-01T07:11:15.184Z,92483.00
2023-05-01T07:12:15.226Z,92485.00
2023-05-01T07:13:15.251Z,92485.00
2023-05-01T07:14:15.281Z,92485.00
2023-05-01T07:15:16.076Z,92483.00
2023-05-01T07:16:15.378Z,92485.00
2023-05-01T07:17:15.417Z,92483.00
2023-05-01T07:18:15.408Z,92481.00
2023-05-01T07:19:15.420Z,92481.00
2023-05-01T07:20:15.454Z,92479.00
2023-05-01T07:21:15.486Z,92479.00
2023-05-01T07:22:15.497Z,92479.00
2023-05-01T07:23:15.519Z,92477.00
2023-05-01T07:24:15.550Z,92479.00
2023-05-01T07:25:15.638Z,92477.00
2023-05-01T07:26:15.618Z,92475.00
2023-05-01T07:27:15.642Z,92471.00
2023-05-01T07:28:15.890Z,92473.00
2023-05-01T07:29:15.692Z,92471.00
2023-05-01T07:30:15.717Z,92471.00
2023-05-01T07:31:15.783Z,92473.00
2023-05-01T07:32:15.833Z,92471.00
2023-05-01T07:33:15.873Z,92471.00
2023-05-01T07:34:15.823Z,92471.00
2023-05-01T07:35:15.854Z,92469.00
2023-05-01T07:36:15.877Z,92469.00
2023-05-01T07:37:15.900Z,92469.00
2023-05-01T07:38:15.938Z,92469.00
2023-05-01T07:39:15.963Z,92469.00
2023-05-01T07:40:15.997Z,92469.00
2023-05-01T07:41:16.012Z,92467.00
2023-05-01T07:42:16.099Z,92469.00
2023-05-01T07:43:16.072Z,92469.00
2023-05-01T07:44:16.088Z,92471.00
2023-05-01T07:45:16.113Z,92471.00
2023-05-01T07:46:16.210Z,92469.00
2023-05-01T07:47:16.171Z,92469.00
2023-05-01T07:48:16.258Z,92467.00
2023-05-01T07:49:16.249Z,92467.00
2023-05-01T07:50:16.235Z,92469.00
2023-05-01T07:51:16.256Z,92467.00
2023-05-01T07:52:16.329Z,92467.00
2023-05-01T07:53:16.327Z,92467.00
2023-05-01T07:54:16.371Z,92469.00
2023-05-01T07:55:16.361Z,92469.00
2023-05-01T07:56:16.403Z,92471.00
2023-05-01T07:57:16.502Z,92469.00
2023-05-01T07:58:16.449Z,92467.00
2023-05-01T07:59:16.471Z,92471.00
2023-05-01T08:00:16.499Z,92471.00
2023-05-01T08:01:16.528Z,92471.00
2023-05-01T08:02:16.619Z,92473.00
2023-05-01T08:03:16.798Z,92473.00
2023-05-01T08:04:16.642Z,92471.00
2023-05-01T08:05:16.610Z,92471.00
2023-05-01T08:06:16.654Z,92469.00
2023-05-01T08:07:16.656Z,92471.00
2023-05-01T08:08:16.678Z,92467.00
2023-05-01T08:09:16.692Z,92467.00
2023-05-01T08:10:16.720Z,92467.00
2023-05-01T08:11:16.764Z,92465.00
2023-05-01T08:12:16.767Z,92463.00
2023-05-01T08:13:16.789Z,92465.00
2023-05-01T08:14:16.813Z,92465.00
2023-05-01T08:15:16.898Z,92465.00
2023-05-01T08:16:17.084Z,92469.00
2023-05-01T08:17:16.886Z,92467.00
2023-05-01T08:18:16.903Z,92465.00
2023-05-01T08:19:16.921Z,92467.00
2023-05-01T08:20:16.965Z,92465.00
2023-05-01T08:21:16.973Z,92465.00
2023-05-01T08:22:17.091Z,92465.00
2023-05-01T08:23:17.020Z,92465.00
2023-05-01T08:24:17.072Z,92465.00
2023-05-01T08:25:17.057Z,92465.00
2023-05-01T08:26:17.598Z,92467.00
2023-05-01T08:27:17.100Z,92463.00
2023-05-01T08:28:17.117Z,92463.00
2023-05-01T08:29:17.137Z,92463.00
2023-05-01T08:30:17.158Z,92461.00
2023-05-01T08:31:17.215Z,92461.00
2023-05-01T08:32:17.228Z,92461.00
2023-05-01T08:33:17.238Z,92459.00
2023-05-01T08:34:17.244Z,92463.00
2023-05-01T08:35:17.252Z,92461.00
2023-05-01T08:36:18.481Z,92463.00
2023-05-01T08:37:17.295Z,92459.00
2023-05-01T08:38:17.302Z,92457.00
2023-05-01T08:39:17.320Z,92459.00
2023-05-01T08:40:17.334Z,92457.00
2023-05-01T08:41:17.409Z,92455.00
2023-05-01T08:42:17.358Z,92455.00
2023-05-01T08:43:17.371Z,92452.00
2023-05-01T08:44:17.379Z,92455.00
2023-05-01T08:45:17.390Z,92453.00
2023-05-01T08:46:17.661Z,92452.00
2023-05-01T08:47:17.436Z,92453.00
2023-05-01T08:48:17.436Z,92452.00
2023-05-01T08:49:17.448Z,92450.00
2023-05-01T08:50:17.464Z,92452.00
2023-05-01T08:51:18.346Z,92453.00
2023-05-01T08:52:17.545Z,92452.00
2023-05-01T08:53:17.538Z,92452.00
2023-05-01T08:54:17.495Z,92452.00
2023-05-01T08:55:17.512Z,92452.00
2023-05-01T08:56:17.573Z,92450.00
2023-05-01T08:57:17.518Z,92450.00
2023-05-01T08:58:17.621Z,92448.00
2023-05-01T08:59:17.630Z,92448.00
2023-05-01T09:00:17.555Z,92446.00
2023-05-01T09:01:17.574Z,92446.00
2023-05-01T09:02:17.552Z,92446.00
2023-05-01T09:03:17.887Z,92446.00
2023-05-01T09:04:17.704Z,92446.00
2023-05-01T09:05:17.585Z,92442.00
2023-05-01T09:06:17.645Z,92442.00
2023-05-01T09:07:17.619Z,92440.00
2023-05-01T09:08:17.691Z,92442.00
2023-05-01T09:09:17.632Z,92440.00
2023-05-01T09:10:17.633Z,92438.00
2023-05-01T09:11:17.636Z,92436.00
2023-05-01T09:12:17.718Z,92436.00
2023-05-01T09:13:17.657Z,92434.00
2023-05-01T09:14:17.669Z,92430.00
2023-05-01T09:15:17.660Z,92434.00
2023-05-01T09:16:17.693Z,92432.00
2023-05-01T09:17:17.745Z,92430.00
2023-05-01T09:18:17.761Z,92430.00
2023-05-01T09:19:17.652Z,92430.00
2023-05-01T09:20:17.665Z,92428.00
2023-05-01T09:21:17.668Z,92428.00
2023-05-01T09:22:17.676Z,92428.00
2023-05-01T09:23:17.675Z,92426.00
2023-05-01T09:24:17.682Z,92426.00
2023-05-01T09:25:17.693Z,92424.00
2023-05-01T09:26:17.678Z,92424.00
2023-05-01T09:27:17.678Z,92424.00
2023-05-01T09:28:18.118Z,92422.00
2023-05-01T09:29:18.619Z,92422.00
2023-05-01T09:30:17.676Z,92418.00
2023-05-01T09:31:17.728Z,92418.00
2023-05-01T09:32:17.880Z,92416.00
2023-05-01T09:33:17.754Z,92418.00
2023-05-01T09:34:17.680Z,92412.00
2023-05-01T09:35:17.701Z,92416.00
2023-05-01T09:36:17.780Z,92416.00
2023-05-01T09:37:17.714Z,92414.00
2023-05-01T09:38:17.699Z,92412.00
2023-05-01T09:39:17.698Z,92412.00
2023-05-01T09:40:17.696Z,92412.00
2023-05-01T09:41:17.698Z,92408.00
2023-05-01T09:42:17.708Z,92408.00
2023-05-01T09:43:17.706Z,92406.00
2023-05-01T09:44:17.695Z,92410.00
2023-05-01T09:45:17.708Z,92406.00
2023-05-01T09:46:17.724Z,92408.00
2023-05-01T09:47:17.691Z,92405.00
2023-05-01T09:48:17.696Z,92405.00
2023-05-01T09:49:17.682Z,92403.00
2023-05-01T09:50:17.692Z,92403.00
2023-05-01T09:51:17.729Z,92403.00
2023-05-01T09:52:17.692Z,92401.00
2023-05-01T09:53:17.693Z,92397.00
2023-05-01T09:54:17.693Z,92395.00
2023-05-01T09:55:17.682Z,92395.00
2023-05-01T09:56:17.688Z,92399.00
2023-05-01T09:57:17.690Z,92395.00
2023-05-01T09:58:17.682Z,92395.00
2023-05-01T09:59:17.669Z,92393.00
2023-05-01T10:00:17.685Z,92391.00
2023-05-01T10:01:17.744Z,92387.00
2023-05-01T10:02:17.673Z,92387.00
2023-05-01T10:03:17.752Z,92389.00
2023-05-01T10:04:17.669Z,92387.00
2023-05-01T10:05:17.660Z,92385.00
2023-05-01T10:06:17.661Z,92385.00
2023-05-01T10:07:17.646Z,92387.00
2023-05-01T10:08:17.653Z,92387.00
2023-05-01T10:09:17.897Z,92385.00
2023-05-01T10:10:17.664Z,92383.00
2023-05-01T10:11:17.671Z,92383.00
2023-05-01T10:12:17.615Z,92381.00
2023-05-01T10:13:17.612Z,92379.00
2023-05-01T10:14:17.610Z,92379.00
2023-05-01T10:15:25.521Z,92377.00
2023-05-01T10:16:18.635Z,92375.00
2023-05-01T10:17:17.604Z,92375.00
2023-05-01T10:18:17.571Z,92373.00
2023-05-01T10:19:17.510Z,92373.00
2023-05-01T10:20:17.472Z,92373.00
2023-05-01T10:21:17.536Z,92371.00
2023-05-01T10:22:17.423Z,92371.00
2023-05-01T10:23:17.396Z,92371.00
2023-05-01T10:24:17.509Z,92371.00
2023-05-01T10:25:17.342Z,92369.00
2023-05-01T10:26:17.307Z,92369.00
2023-05-01T10:27:17.291Z,92373.00
2023-05-01T10:28:17.284Z,92373.00
2023-05-01T10:29:17.235Z,92369.00
2023-05-01T10:30:17.262Z,92369.00
2023-05-01T10:31:17.202Z,92369.00
2023-05-01T10:32:17.141Z,92369.00
2023-05-01T10:33:17.152Z,92367.00
2023-05-01T10:34:17.088Z,92365.00
2023-05-01T10:35:17.071Z,92365.00
2023-05-01T10:36:17.061Z,92367.00
2023-05-01T10:37:17.014Z,92365.00
2023-05-01T10:38:16.982Z,92365.00
2023-05-01T10:39:16.957Z,92365.00
2023-05-01T10:40:16.929Z,92361.00
2023-05-01T10:41:16.888Z,92361.00
2023-05-01T10:42:16.948Z,92361.00
2023-05-01T10:43:16.885Z,92363.00
2023-05-01T10:44:16.817Z,92365.00
2023-05-01T10:45:16.814Z,92365.00
2023-05-01T10:46:16.887Z,92361.00
2023-05-01T10:47:16.772Z,92365.00
2023-05-01T10:48:16.755Z,92365.00
2023-05-01T10:49:16.728Z,92361.00
2023-05-01T10:50:16.719Z,92361.00
2023-05-01T10:51:16.707Z,92359.00
2023-05-01T10:52:16.743Z,92359.00
2023-05-01T10:53:16.729Z,92358.00
2023-05-01T10:54:16.670Z,92358.00
2023-05-01T10:55:16.669Z,92354.00
2023-05-01T10:56:16.649Z,92354.00
2023-05-01T10:57:16.628Z,92354.00
2023-05-01T10:58:16.616Z,92352.00
2023-05-01T10:59:16.614Z,92352.00
2023-05-01T11:00:16.609Z,92350.00
2023-05-01T11:01:16.636Z,92350.00
2023-05-01T11:02:16.698Z,92350.00
2023-05-01T11:03:16.636Z,92348.00
2023-05-01T11:04:16.525Z,92348.00
2023-05-01T11:05:19.956Z,92346.00
2023-05-01T11:06:17.603Z,92344.00
2023-05-01T11:07:16.630Z,92346.00
2023-05-01T11:08:16.423Z,92344.00
2023-05-01T11:09:16.398Z,92342.00
2023-05-01T11:10:16.369Z,92342.00
2023-05-01T11:11:16.351Z,92340.00
2023-05-01T11:12:16.340Z,92336.00
2023-05-01T11:13:16.307Z,92338.00
2023-05-01T11:14:16.281Z,92336.00
2023-05-01T11:15:16.256Z,92334.00
2023-05-01T11:16:16.293Z,92336.00
2023-05-01T11:17:16.295Z,92334.00
2023-05-01T11:18:16.293Z,92332.00
2023-05-01T11:19:16.164Z,92336.00
2023-05-01T11:20:16.135Z,92336.00
2023-05-01T11:21:16.130Z,92336.00
2023-05-01T11:22:16.096Z,92336.00
2023-05-01T11:23:16.075Z,92334.00
2023-05-01T11:24:16.134Z,92332.00
2023-05-01T11:25:16.020Z,92336.00
2023-05-01T11:26:16.002Z,92334.00
2023-05-01T11:27:15.979Z,92334.00
2023-05-01T11:28:15.949Z,92334.00
2023-05-01T11:29:15.926Z,92332.00
2023-05-01T11:30:15.890Z,92332.00
2023-05-01T11:31:15.874Z,92332.00
2023-05-01T11:32:15.986Z,92332.00
2023-05-01T11:33:15.961Z,92330.00
2023-05-01T11:34:15.781Z,92334.00
2023-05-01T11:35:15.766Z,92330.00
2023-05-01T11:36:15.730Z,92330.00
2023-05-01T11:37:15.713Z,92332.00
2023-05-01T11:38:15.683Z,92328.00
2023-05-01T11:39:15.728Z,92330.00
2023-05-01T11:40:15.635Z,92330.00
2023-05-01T11:41:15.622Z,92330.00
2023-05-01T11:42:15.733Z,92330.00
2023-05-01T11:43:15.563Z,92330.00
2023-05-01T11:44:15.616Z,92330.00
2023-05-01T11:45:15.502Z,92330.00